Latest Coastal Weather Observations for St Lawrence

IDQ60701

Issued at 11:42 pm EST Sunday 17 December 2017 (issued every 10 minutes, with the page automatically refreshed every 10 minutes)

About coastal observations | Map of coastal stations | Coastal observations for QLD | Marine services | Other Formats
Station Details ID: 033210 Name: ST LAWRENCE Lat: -22.35 Lon: 149.52 Height: 9.19 m
Data from the previous 72 hours. | See also: Recent months at St Lawrence
Date/Time
EST
Temp
°C
Wind Pressure Rain since
9am
mm
Weather Cloud Vis
km
Sea
Height
m
Swell
Dir  Spd
kts
Gust
kts
hPa Trend Height
m
Period
s
Dir
17/11:30pm 24.2 SE 5 7 1014.1 - 0.0 - - - - - - -
17/11:00pm 24.7 ESE 6 13 1014.0 - 0.0 - - - - - - -
17/10:30pm 24.9 ESE 6 10 1013.7 - 0.0 - - - - - - -
17/10:00pm 25.3 E 6 9 1013.6 - 0.0 - - - - - - -
17/09:30pm 25.7 E 7 11 1013.4 - 0.0 - - - - - - -
17/09:00pm 25.8 ENE 5 9 1013.0 - 0.0 - - - - - - -
17/08:30pm 26.0 ENE 6 9 1012.7 - 0.0 - - - - - - -
17/08:00pm 26.3 ENE 6 8 1012.6 - 0.0 - - - - - - -
17/07:30pm 26.9 ENE 7 11 1012.4 - 0.0 - - - - - - -
17/07:00pm 27.3 NE 7 11 1012.3 - 0.0 - - - - - - -
17/06:30pm 27.6 NNE 9 13 1012.0 - 0.0 - - - - - - -
17/06:00pm 28.1 NNE 11 15 1011.6 - 0.0 - - - - - - -
17/05:30pm 28.5 NNE 11 15 1011.3 - 0.0 - - - - - - -
17/05:00pm 29.2 NNE 11 15 1011.0 - 0.0 - - - - - - -
17/04:30pm 29.5 NNE 12 17 1011.0 - 0.0 - - - - - - -
17/04:00pm 30.0 NNE 12 17 1011.0 - 0.0 - - - - - - -
17/03:30pm 30.2 NNE 13 19 1011.1 - 0.0 - - - - - - -
17/03:00pm 30.3 NNE 13 17 1011.2 - 0.0 - - - - - - -
17/02:30pm 30.4 NNE 12 17 1011.3 - 0.0 - - - - - - -
17/02:00pm 31.5 NNE 13 19 1011.1 - 0.0 - - - - - - -
17/01:30pm 32.6 ENE 10 17 1011.3 - 0.0 - - - - - - -
17/01:00pm 32.3 ESE 6 9 1011.8 - 0.0 - - - - - - -
17/12:30pm 31.4 E 8 15 1012.0 - 0.0 - - - - - - -
17/12:00pm 31.4 ESE 7 10 1012.7 - 0.0 - - - - - - -
17/11:30am 31.1 E 9 19 1013.0 - 0.0 - - - - - - -
17/11:00am 31.3 ESE 7 12 1013.6 - 0.0 - - - - - - -
17/10:30am 30.2 E 6 12 1013.9 - 0.0 - - - - - - -
17/10:00am 30.3 E 7 11 1014.1 - 0.0 - - - - - - -
17/09:30am 29.1 ESE 8 12 1014.2 - 0.0 - - - - - - -
17/09:00am 28.7 ESE 6 12 1014.2 - 0.0 - - - - - - -
17/08:30am 27.4 NE 5 14 1014.0 - 0.0 - - - - - - -
17/08:00am 27.6 ESE 5 8 1013.9 - 0.0 - - - - - - -
17/07:30am 26.1 S 5 7 1013.7 - 0.0 - - - - - - -
17/07:00am 24.9 SSE 5 8 1013.5 - 0.0 - - - - - - -
17/06:30am 23.6 S 5 7 1013.2 - 0.0 - - - - - - -
17/06:00am 22.3 SSE 5 7 1012.9 - 0.0 - - - - - - -
17/05:30am 21.5 S 5 6 1012.6 - 0.0 - - - - - - -
17/05:00am 21.6 S 5 6 1012.1 - 0.0 - - - - - - -
17/04:30am 21.9 SSE 5 7 1012.0 - 0.0 - - - - - - -
17/04:00am 21.9 S 5 6 1012.1 - 0.0 - - - - - - -
17/03:30am 22.2 S 5 6 1012.1 - 0.0 - - - - - - -
17/03:00am 22.4 SSE 5 6 1011.9 - 0.0 - - - - - - -
17/02:30am 22.7 SSE 5 6 1012.1 - 0.0 - - - - - - -
17/02:00am 22.9 S 4 5 1012.3 - 0.0 - - - - - - -
17/01:30am 23.3 S 4 5 1012.5 - 0.0 - - - - - - -
17/01:00am 23.8 S 1 4 1012.8 - 0.0 - - - - - - -
17/12:30am 24.4 SSE 1 5 1013.0 - 0.0 - - - - - - -
17/12:00am 24.4 CALM 0 0 1013.2 - 0.0 - - - - - - -
 
Date/Time
EST
Temp
°C
Wind Pressure Rain since
9am
mm
Weather Cloud Vis
km
Sea
Height
m
Swell
Dir  Spd
kts
Gust
kts
hPa Trend Height
m
Period
s
Dir
16/11:30pm 24.7 ESE 2 4 1013.4 - 0.0 - - - - - - -
16/11:00pm 24.6 E 3 5 1013.5 - 0.0 - - - - - - -
16/10:30pm 24.8 E 3 4 1013.5 - 0.0 - - - - - - -
16/10:00pm 25.0 E 4 7 1013.5 - 0.0 - - - - - - -
16/09:30pm 25.4 E 5 7 1013.3 - 0.0 - - - - - - -
16/09:00pm 25.9 ENE 5 10 1013.2 - 0.0 - - - - - - -
16/08:30pm 26.3 ENE 5 9 1013.1 - 0.0 - - - - - - -
16/08:00pm 26.6 ENE 6 9 1012.9 - 0.0 - - - - - - -
16/07:30pm 26.5 NNE 7 10 1012.6 - 0.0 - - - - - - -
16/07:00pm 26.8 NNE 8 11 1012.3 - 0.0 - - - - - - -
16/06:30pm 27.2 NNE 10 12 1012.0 - 0.0 - - - - - - -
16/06:00pm 27.9 NNE 10 14 1011.5 - 0.0 - - - - - - -
16/05:30pm 28.4 NNE 11 16 1011.2 - 0.0 - - - - - - -
16/05:00pm 28.8 NNE 11 17 1010.8 - 0.0 - - - - - - -
16/04:30pm 29.0 NNE 11 15 1010.8 - 0.0 - - - - - - -
16/04:00pm 29.7 NNE 10 14 1010.6 - 0.0 - - - - - - -
16/03:30pm 30.4 NNE 10 14 1010.5 - 0.0 - - - - - - -
16/03:00pm 30.3 NNE 9 13 1010.8 - 0.0 - - - - - - -
16/02:30pm 29.7 NNE 7 11 1011.2 - 0.0 - - - - - - -
16/02:00pm 29.8 NNE 8 10 1011.7 - 0.0 - - - - - - -
16/01:30pm 29.2 NNE 5 8 1012.2 - 0.0 - - - - - - -
16/01:00pm 28.7 ENE 7 11 1012.6 - 0.0 - - - - - - -
16/12:30pm 28.1 E 9 14 1013.0 - 0.0 - - - - - - -
16/12:00pm 28.8 E 9 17 1013.3 - 0.0 - - - - - - -
16/11:30am 28.4 ENE 10 15 1013.5 - 0.0 - - - - - - -
16/11:00am 28.9 NE 12 17 1013.6 - 0.0 - - - - - - -
16/10:30am 29.7 NNE 8 13 1013.7 - 0.0 - - - - - - -
16/10:00am 29.4 ENE 7 11 1013.9 - 0.0 - - - - - - -
16/09:30am 28.9 E 5 9 1014.0 - 0.0 - - - - - - -
16/09:00am 28.5 SE 7 11 1014.0 - 0.0 - - - - - - -
16/08:30am 27.9 SSE 4 9 1014.0 - 0.0 - - - - - - -
16/08:00am 27.0 SSE 5 7 1014.0 - 0.0 - - - - - - -
16/07:30am 25.3 SSE 6 9 1013.8 - 0.0 - - - - - - -
16/07:00am 24.0 S 6 9 1013.6 - 0.0 - - - - - - -
16/06:30am 23.0 S 7 10 1013.2 - 0.0 - - - - - - -
16/06:00am 22.5 S 7 9 1012.8 - 0.0 - - - - - - -
16/05:30am 22.2 SSE 5 6 1012.5 - 0.0 - - - - - - -
16/05:00am 22.6 S 4 6 1012.0 - 0.0 - - - - - - -
16/04:30am 22.7 SSE 4 5 1011.5 - 0.0 - - - - - - -
16/04:00am 23.0 S 4 5 1011.4 - 0.0 - - - - - - -
16/03:30am 23.2 S 4 5 1011.4 - 0.0 - - - - - - -
16/03:00am 22.9 S 3 4 1011.3 - 0.0 - - - - - - -
16/02:30am 23.1 S 4 5 1011.2 - 0.0 - - - - - - -
16/02:00am 22.9 SSE 4 6 1011.3 - 0.0 - - - - - - -
16/01:30am 23.4 S 3 5 1011.4 - 0.0 - - - - - - -
16/01:00am 24.1 S 3 4 1011.6 - 0.0 - - - - - - -
16/12:30am 24.8 SE 3 4 1011.8 - 0.0 - - - - - - -
16/12:00am 24.9 ESE 4 5 1012.0 - 0.0 - - - - - - -
 
Date/Time
EST
Temp
°C
Wind Pressure Rain since
9am
mm
Weather Cloud Vis
km
Sea
Height
m
Swell
Dir  Spd
kts
Gust
kts
hPa Trend Height
m
Period
s
Dir
15/11:30pm 25.1 E 4 6 1012.1 - 0.0 - - - - - - -
15/11:00pm 25.0 E 4 6 1012.2 - 0.0 - - - - - - -
15/10:30pm 25.4 E 4 7 1012.4 - 0.0 - - - - - - -
15/10:00pm 25.7 E 6 10 1012.4 - 0.0 - - - - - - -
15/09:30pm 25.7 E 5 9 1012.1 - 0.0 - - - - - - -
15/09:00pm 26.0 NE 5 8 1011.7 - 0.0 - - - - - - -
15/08:30pm 26.4 ENE 6 10 1011.5 - 0.0 - - - - - - -
15/08:00pm 26.4 NNE 6 7 1011.3 - 0.0 - - - - - - -
15/07:30pm 26.5 NNE 7 10 1010.9 - 0.0 - - - - - - -
15/07:00pm 26.7 N 9 13 1010.6 - 0.0 - - - - - - -
15/06:30pm 27.1 NNE 10 14 1010.3 - 0.0 - - - - - - -
15/06:00pm 27.8 NNE 9 13 1009.8 - 0.0 - - - - - - -
15/05:30pm 28.5 NNE 10 14 1009.4 - 0.0 - - - - - - -
15/05:00pm 28.5 NNE 12 17 1009.1 - 0.0 - - - - - - -
15/04:30pm 29.1 NNE 12 17 1008.7 - 0.0 - - - - - - -
15/04:00pm 29.8 NNE 10 15 1008.6 - 0.0 - - - - - - -
15/03:30pm 29.5 NNE 12 17 1008.5 - 0.0 - - - - - - -
15/03:00pm 30.0 NNE 12 17 1008.6 - 0.0 - - - - - - -
15/02:30pm 30.7 NNE 12 16 1008.8 - 0.0 - - - - - - -
15/02:00pm 29.8 NNE 11 16 1008.9 - 0.0 - - - - - - -
15/01:30pm 30.3 NNE 11 15 1009.1 - 0.0 - - - - - - -
15/01:00pm 31.1 NNE 10 14 1009.3 - 0.0 - - - - - - -
15/12:30pm 30.4 NE 9 14 1009.5 - 0.0 - - - - - - -
15/12:00pm 29.5 NNE 10 13 1009.8 - 0.0 - - - - - - -
15/11:30am 30.2 N 8 12 1010.3 - 0.0 - - - - - - -
15/11:00am 29.7 ENE 4 11 1010.8 - 0.0 - - - - - - -
15/10:30am 30.0 E 6 10 1010.8 - 0.0 - - - - - - -
15/10:00am 28.6 NE 6 9 1011.1 - 0.0 - - - - - - -
15/09:30am 29.0 E 4 7 1011.4 - 0.0 - - - - - - -
15/09:00am 27.7 E 4 6 1011.7 - 0.0 - - - - - - -
15/08:30am 26.8 S 5 10 1011.8 - 0.0 - - - - - - -
15/08:00am 26.8 SSW 6 9 1011.8 - 0.0 - - - - - - -
15/07:30am 25.8 SW 4 8 1011.8 - 0.0 - - - - - - -
15/07:00am 25.0 S 5 7 1011.6 - 0.0 - - - - - - -
15/06:30am 23.7 SSW 4 5 1011.6 - 0.0 - - - - - - -
15/06:00am 21.6 CALM 0 1 1011.3 - 0.0 - - - - - - -
15/05:30am 20.8 SSW 3 4 1010.9 - 0.0 - - - - - - -
15/05:00am 20.1 SSW 3 4 1010.5 - 0.0 - - - - - - -
15/04:30am 20.3 SSW 3 4 1010.2 - 0.0 - - - - - - -
15/04:00am 20.8 S 4 5 1009.7 - 0.0 - - - - - - -
15/03:30am 21.0 S 3 5 1009.5 - 0.0 - - - - - - -
15/03:00am 21.0 S 4 5 1009.4 - 0.0 - - - - - - -
15/02:30am 21.2 S 3 4 1009.5 - 0.0 - - - - - - -
15/02:00am 21.3 SSW 3 4 1009.6 - 0.0 - - - - - - -
15/01:30am 22.3 S 4 5 1009.9 - 0.0 - - - - - - -
15/01:00am 22.8 S 3 5 1010.2 - 0.0 - - - - - - -
15/12:30am 23.5 SE 3 5 1010.6 - 0.0 - - - - - - -
15/12:00am 23.8 E 3 7 1011.0 - 0.0 - - - - - - -

Other Formats:

Comma delimited format used in spreadsheet applications
http://www.bom.gov.au/fwo/IDQ60701/IDQ60701.95369.axf

JavaScript Object Notation format (JSON) in row-major order
http://www.bom.gov.au/fwo/IDQ60701/IDQ60701.95369.json